createdAt,value
2022-09-27T17:44:41.659Z,90.40
2022-09-27T17:47:10.635Z,90.30
2022-09-27T17:49:33.190Z,90.30
2022-09-27T17:51:45.670Z,90.40
2022-09-27T17:53:48.250Z,90.50
2022-09-27T17:55:50.676Z,90.50
2022-09-27T17:58:01.469Z,90.50
2022-09-27T18:00:05.886Z,90.50
2022-09-27T18:02:15.710Z,90.50
2022-09-27T18:04:19.782Z,90.70
2022-09-27T18:06:24.034Z,91.00
2022-09-27T18:08:30.627Z,91.20
2022-09-27T18:10:40.387Z,91.20
2022-09-27T18:12:43.180Z,91.20
2022-09-27T18:14:50.125Z,91.30
2022-09-27T18:16:57.066Z,91.30
2022-09-27T18:19:08.267Z,91.60
2022-09-27T18:21:16.761Z,91.80
2022-09-27T18:23:19.297Z,92.00
2022-09-27T18:25:22.105Z,92.10
2022-09-27T18:27:25.064Z,92.20
2022-09-27T18:29:42.622Z,92.00
2022-09-27T18:31:48.668Z,92.10
2022-09-27T18:33:53.210Z,92.20
2022-09-27T18:36:01.156Z,92.40
2022-09-27T18:38:07.364Z,92.80
2022-09-27T18:40:10.496Z,93.00
2022-09-27T18:42:14.524Z,93.10
2022-09-27T18:44:18.360Z,93.20
2022-09-27T18:46:37.717Z,92.90
2022-09-27T18:48:44.706Z,93.50
2022-09-27T18:50:47.387Z,93.50
2022-09-27T18:52:52.745Z,93.90
2022-09-27T18:54:55.362Z,94.30
2022-09-27T18:56:57.846Z,94.10
2022-09-27T18:59:00.246Z,94.10
2022-09-27T19:01:05.012Z,94.00
2022-09-27T19:03:07.606Z,93.80
2022-09-27T19:05:10.174Z,93.90
2022-09-27T19:07:12.817Z,93.90
2022-09-27T19:09:15.433Z,94.30
2022-09-27T19:11:18.714Z,94.40
2022-09-27T19:13:25.155Z,94.50
2022-09-27T19:15:30.369Z,94.30
2022-09-27T19:17:34.123Z,94.40
2022-09-27T19:19:36.606Z,94.60
2022-09-27T19:21:39.477Z,94.80
2022-09-27T19:23:42.481Z,95.00
2022-09-27T19:26:16.597Z,95.00
2022-09-27T19:28:19.428Z,95.20
2022-09-27T19:30:22.277Z,95.30
2022-09-27T19:32:28.870Z,95.30
2022-09-27T19:34:31.355Z,95.30
2022-09-27T19:36:33.989Z,95.30
2022-09-27T19:38:39.866Z,95.20
2022-09-27T19:40:45.733Z,95.20
2022-09-27T19:42:52.502Z,95.20
2022-09-27T19:44:58.799Z,95.10
2022-09-27T19:47:13.584Z,95.50
2022-09-27T19:49:18.489Z,95.70
2022-09-27T19:51:31.773Z,96.10
2022-09-27T19:53:35.364Z,96.00
2022-09-27T19:55:45.098Z,96.30
2022-09-27T19:57:49.248Z,96.50
2022-09-27T19:59:51.859Z,96.40
2022-09-27T20:01:55.631Z,96.50
2022-09-27T20:06:20.585Z,96.40
2022-09-27T20:08:25.124Z,96.40
2022-09-27T20:10:31.084Z,96.20
2022-09-27T20:12:35.994Z,96.00
2022-09-27T20:14:40.500Z,95.70
2022-09-27T20:16:43.452Z,95.60
2022-09-27T20:18:56.719Z,95.30
2022-09-27T20:21:01.302Z,95.30
2022-09-27T20:23:04.039Z,95.40
2022-09-27T20:25:09.886Z,95.40
2022-09-27T20:27:15.433Z,95.50
2022-09-27T20:29:18.021Z,95.50
2022-09-27T20:31:27.954Z,95.90
